MMCS

Abraham González International Airport

Ciudad Juárez, Mexico
TAF MMCS 251729Z 2518/2618 25015KT P6SM SCT030 SCT100 TEMPO 2521/2601 BKN030 FM260300 26015KT P6SM BKN030CB BKN120 TEMPO 2606/2610 6SM TSRA FM261500 00000KT P6SM SCT100 BKN250
Issued Valid From Valid To
Sep-25 @ 17:29 UTC
(2 hours ago)
Sep-25 @ 18:00 UTC
(2 hours ago)
Sep-26 @ 18:00 UTC
(in 22 hours)
Sep-25 @ 18:00 to Sep-26 @ 03:00
TAF MMCS 251729Z 2518/2618 25015KT P6SM SCT030 SCT100
Wind Visibility Clouds
250° at 15 knots Greater than 6 miles
  • Scattered at 3,000' AGL
  • Scattered at 10,000' AGL
Temporary Sep-25 @ 21:00 to Sep-26 @ 01:00
TEMPO 2521/2601 BKN030
Clouds
  • Broken at 3,000' AGL
From Sep-26 @ 03:00 to Sep-26 @ 15:00
FM260300 26015KT P6SM BKN030CB BKN120
Wind Visibility Clouds
260° at 15 knots Greater than 6 miles
  • Broken at 3,000' AGL
  • Broken at 12,000' AGL
Temporary Sep-26 @ 06:00 to Sep-26 @ 10:00
TEMPO 2606/2610 6SM TSRA
Visibility Conditions
6 miles
  • Thunderstorm
  • Rain
From Sep-26 @ 15:00 to Sep-26 @ 18:00
FM261500 00000KT P6SM SCT100 BKN250
Visibility Clouds
Greater than 6 miles
  • Scattered at 10,000' AGL
  • Broken at 25,000' AGL
TAF MMCS 251729Z 2518/2618 25015KT P6SM SCT030 SCT100 TEMPO 2521/2601 BKN030 FM260300 26015KT P6SM BKN030CB BKN120 TEMPO 2606/2610 6SM TSRA FM261500 00000KT P6SM SCT100 BKN250
Issued Sep-25 @ 17:29 UTC
(2 hours ago)
Valid From Sep-25 @ 18:00 UTC
(2 hours ago)
Valid To Sep-26 @ 18:00 UTC
(in 22 hours)
Sep-25 @ 18:00 - Sep-26 @ 03:00
Wind Visibility
250° at 15 knots Greater than 6 miles
Clouds
  • Scattered at 3,000' AGL
  • Scattered at 10,000' AGL
Temporary Sep-25 @ 21:00 - Sep-26 @ 01:00
Clouds
  • Broken at 3,000' AGL
From Sep-26 @ 03:00 - Sep-26 @ 15:00
Wind Visibility
260° at 15 knots Greater than 6 miles
Clouds
  • Broken at 3,000' AGL
  • Broken at 12,000' AGL
Temporary Sep-26 @ 06:00 - Sep-26 @ 10:00
Conditions
  • Thunderstorm
  • Rain
From Sep-26 @ 15:00 - Sep-26 @ 18:00
Clouds
  • Scattered at 10,000' AGL
  • Broken at 25,000' AGL